createdAt,value
2022-12-03T00:00:14.759Z,14.89
2022-12-03T00:01:13.459Z,14.19
2022-12-03T00:02:13.600Z,14.60
2022-12-03T00:03:13.332Z,14.5
2022-12-03T00:04:13.089Z,14.60
2022-12-03T00:05:13.820Z,13.69
2022-12-03T00:06:12.788Z,15
2022-12-03T00:07:12.679Z,14.19
2022-12-03T00:08:12.537Z,14
2022-12-03T00:09:12.747Z,15.60
2022-12-03T00:10:12.855Z,13.60
2022-12-03T00:11:12.590Z,14.19
2022-12-03T00:12:12.692Z,14.89
2022-12-03T00:13:12.727Z,14
2022-12-03T00:14:12.710Z,14.89
2022-12-03T00:15:12.890Z,13.39
2022-12-03T00:16:13.236Z,13.60
2022-12-03T00:17:13.663Z,14.39
2022-12-03T00:18:12.512Z,14.60
2022-12-03T00:19:13.459Z,13.80
2022-12-03T00:20:13.036Z,15.19
2022-12-03T00:21:13.430Z,14.80
2022-12-03T00:22:13.654Z,12.60
2022-12-03T00:23:12.910Z,13.80
2022-12-03T00:24:13.167Z,14
2022-12-03T00:25:13.827Z,14.19
2022-12-03T00:26:12.880Z,13.89
2022-12-03T00:27:12.735Z,13.5
2022-12-03T00:28:12.904Z,13.30
2022-12-03T00:29:13.043Z,13.80
2022-12-03T00:30:13.266Z,14.39
2022-12-03T00:31:12.591Z,13.89
2022-12-03T00:32:12.466Z,13.69
2022-12-03T00:34:13.423Z,14.5
2022-12-03T00:35:13.608Z,13.30
2022-12-03T00:36:12.896Z,14.10
2022-12-03T00:38:13.427Z,14.19
2022-12-03T00:39:13.296Z,13.19
2022-12-03T00:40:12.684Z,12.89
2022-12-03T00:41:12.758Z,14.60
2022-12-03T00:42:12.381Z,13.5
2022-12-03T00:43:12.521Z,14.69
2022-12-03T00:44:13.224Z,14.5
2022-12-03T00:45:12.526Z,14.60
2022-12-03T00:46:15.761Z,14.19
2022-12-03T00:47:12.910Z,13.30
2022-12-03T00:48:12.733Z,13.10
2022-12-03T00:49:12.596Z,13.19
2022-12-03T00:50:13.446Z,13.10
2022-12-03T00:51:13.210Z,13
2022-12-03T00:52:13.044Z,14
2022-12-03T00:53:13.170Z,13
2022-12-03T00:54:12.674Z,12.60
2022-12-03T00:55:12.448Z,13.10
2022-12-03T00:56:12.564Z,12.80
2022-12-03T00:57:13.168Z,13.30
2022-12-03T00:58:13.011Z,13.5
2022-12-03T00:59:13.013Z,12.89
2022-12-03T01:00:14.517Z,13.10
2022-12-03T01:01:14.518Z,17.79
2022-12-03T01:02:14.143Z,12
2022-12-03T01:03:13.418Z,12.5
2022-12-03T01:04:12.779Z,11.80
2022-12-03T01:05:13.796Z,12.5
2022-12-03T01:06:12.801Z,12.19
2022-12-03T01:07:12.778Z,12.69
2022-12-03T01:08:12.731Z,11.89
2022-12-03T01:09:12.740Z,12
2022-12-03T01:10:13.054Z,13.10
2022-12-03T01:11:13.232Z,12.60
2022-12-03T01:12:13.518Z,11.5
2022-12-03T01:13:12.895Z,11.60
2022-12-03T01:14:13.213Z,12.10
2022-12-03T01:15:13.308Z,12.5
2022-12-03T01:16:12.828Z,12.80
2022-12-03T01:17:13.308Z,13.30
2022-12-03T01:18:12.271Z,11.10
2022-12-03T01:19:13.180Z,11.60
2022-12-03T01:20:13.194Z,11.39
2022-12-03T01:21:13.079Z,11.19
2022-12-03T01:22:13.226Z,10.89
2022-12-03T01:23:12.756Z,12.10
2022-12-03T01:24:13.146Z,11.5
2022-12-03T01:26:13.394Z,11.39
2022-12-03T01:27:12.612Z,11.30
2022-12-03T01:29:17.815Z,12
2022-12-03T01:30:12.850Z,11.89
2022-12-03T01:31:12.938Z,11.60
2022-12-03T01:32:13.021Z,11.19
2022-12-03T01:33:17.776Z,11
2022-12-03T01:34:12.485Z,11.30
2022-12-03T01:35:12.407Z,11.19
2022-12-03T01:36:12.678Z,10.19
2022-12-03T01:37:21.274Z,12.19
2022-12-03T01:38:13.185Z,10.69
2022-12-03T01:39:11.641Z,11.10
2022-12-03T01:40:12.754Z,11
2022-12-03T01:41:12.545Z,10.60
2022-12-03T01:42:12.797Z,10.30
2022-12-03T01:43:12.665Z,10.80
2022-12-03T01:44:12.692Z,10.10
2022-12-03T01:45:12.930Z,10.80
2022-12-03T01:46:13.333Z,11.30
2022-12-03T01:47:27.222Z,10
2022-12-03T01:49:12.523Z,10.89
2022-12-03T01:50:13.542Z,11
2022-12-03T01:51:13.308Z,10.39
2022-12-03T01:52:13.220Z,11.30
2022-12-03T01:53:27.318Z,10.69
2022-12-03T01:54:12.029Z,10.10
2022-12-03T01:55:13.160Z,10.5
2022-12-03T01:56:12.868Z,10.60
2022-12-03T01:57:27.206Z,10.39
2022-12-03T01:58:12.572Z,9.800
2022-12-03T01:59:12.701Z,10
2022-12-03T02:01:13.195Z,11
2022-12-03T02:03:12.296Z,10.5
2022-12-03T02:04:13.109Z,9.899
2022-12-03T02:05:12.667Z,10.89
2022-12-03T02:06:12.448Z,9.899
2022-12-03T02:07:12.627Z,10.30
2022-12-03T02:08:12.744Z,9.899
2022-12-03T02:09:12.932Z,9.800
2022-12-03T02:10:13.223Z,11.10
2022-12-03T02:11:13.281Z,9.899
2022-12-03T02:12:13.419Z,10.80
2022-12-03T02:13:12.902Z,10.30
2022-12-03T02:14:12.855Z,10.10
2022-12-03T02:15:12.878Z,10
2022-12-03T02:16:13.238Z,9.800
2022-12-03T02:18:12.618Z,10.19
2022-12-03T02:19:13.109Z,11.30
2022-12-03T02:20:13.475Z,9.800
2022-12-03T02:21:12.689Z,10.60
2022-12-03T02:22:12.774Z,10.80
2022-12-03T02:23:12.945Z,9.699
2022-12-03T02:24:13.762Z,10.39
2022-12-03T02:25:13.102Z,10.5
2022-12-03T02:26:12.348Z,10.10
2022-12-03T02:27:12.675Z,9.399
2022-12-03T02:28:12.463Z,10.10
2022-12-03T02:29:12.919Z,10.19
2022-12-03T02:30:13.439Z,10.30
2022-12-03T02:31:12.732Z,10.10
2022-12-03T02:32:12.482Z,9.899
2022-12-03T02:33:12.715Z,10.89
2022-12-03T02:34:12.977Z,10
2022-12-03T02:35:12.548Z,10.30
2022-12-03T02:36:13.297Z,10.80
2022-12-03T02:37:13.212Z,11.69
2022-12-03T02:38:13.221Z,11
2022-12-03T02:39:13.394Z,10.5
2022-12-03T02:40:12.533Z,9.800
2022-12-03T02:41:12.891Z,10.5
2022-12-03T02:42:12.881Z,10.19
2022-12-03T02:43:12.560Z,9.100
2022-12-03T02:44:12.766Z,9.199
2022-12-03T02:45:12.937Z,9.800
2022-12-03T02:46:13.314Z,10.30
2022-12-03T02:47:13.077Z,10.60
2022-12-03T02:48:13.010Z,11.10
2022-12-03T02:49:12.613Z,9.800
2022-12-03T02:50:13.117Z,10.39
2022-12-03T02:51:12.419Z,9.699
2022-12-03T02:52:13.239Z,11
2022-12-03T02:54:12.668Z,10.80
2022-12-03T02:55:13.271Z,10.5
2022-12-03T02:56:12.852Z,10.30
2022-12-03T02:57:13.106Z,10.39
2022-12-03T02:58:13.791Z,10.5
2022-12-03T02:59:12.959Z,11.19
2022-12-03T03:00:13.993Z,10.60
2022-12-03T03:01:13.119Z,10.39
2022-12-03T03:02:13.859Z,10.19
2022-12-03T03:03:13.357Z,10.60
2022-12-03T03:04:12.603Z,10.80
2022-12-03T03:05:14.056Z,11.19
2022-12-03T03:06:12.997Z,10.5
2022-12-03T03:07:13.121Z,11.69
2022-12-03T03:08:12.454Z,11.19
2022-12-03T03:09:12.700Z,10.30
2022-12-03T03:10:12.371Z,10.89
2022-12-03T03:12:13.408Z,11.60
2022-12-03T03:13:12.788Z,11.30
2022-12-03T03:14:12.285Z,11.10
2022-12-03T03:15:13.642Z,11.5
2022-12-03T03:16:12.785Z,11.69
2022-12-03T03:17:13.515Z,10.89
2022-12-03T03:18:12.245Z,11.5
2022-12-03T03:19:12.854Z,11.39
2022-12-03T03:21:12.977Z,10.39
2022-12-03T03:22:12.946Z,11.80
2022-12-03T03:23:12.941Z,10.89
2022-12-03T03:25:12.927Z,12.89
2022-12-03T03:26:12.938Z,12.39
2022-12-03T03:27:13.068Z,11.80
2022-12-03T03:28:13.234Z,11.39
2022-12-03T03:29:13.477Z,12.69
2022-12-03T03:30:13.068Z,12.19
2022-12-03T03:31:13.458Z,11.10
2022-12-03T03:32:13.204Z,11.39
2022-12-03T03:33:13.348Z,11
2022-12-03T03:34:13.370Z,11.30
2022-12-03T03:35:13.315Z,11.69
2022-12-03T03:36:12.948Z,11.5
2022-12-03T03:37:12.836Z,11.89
2022-12-03T03:38:12.844Z,12.39
2022-12-03T03:39:13.921Z,11.89
2022-12-03T03:40:13.092Z,12.39
2022-12-03T03:41:13.287Z,11.39
2022-12-03T03:42:13.332Z,11.30
2022-12-03T03:43:12.922Z,12.60
2022-12-03T03:44:12.816Z,11.89
2022-12-03T03:45:13.472Z,10.89
2022-12-03T03:46:13.353Z,11.60
2022-12-03T03:47:12.723Z,13.5
2022-12-03T03:48:12.680Z,11.19
2022-12-03T03:49:13.919Z,12.10
2022-12-03T03:50:12.846Z,11.30
2022-12-03T03:51:13.103Z,12.39
2022-12-03T03:52:13.257Z,11.10
2022-12-03T03:53:12.930Z,11.89
2022-12-03T03:54:12.585Z,13
2022-12-03T03:55:14.101Z,11.19
2022-12-03T03:56:18.152Z,12.80
2022-12-03T03:57:12.788Z,12.60
2022-12-03T03:58:12.621Z,12
2022-12-03T03:59:12.253Z,11.80
2022-12-03T04:00:18.567Z,13.39
2022-12-03T04:01:13.203Z,12.60
2022-12-03T04:02:18.057Z,12.39
2022-12-03T04:03:13.150Z,13.69
2022-12-03T04:04:12.939Z,13.60
2022-12-03T04:05:13.174Z,12.80
2022-12-03T04:06:12.936Z,14.60
2022-12-03T04:08:20.454Z,13.30
2022-12-03T04:09:12.518Z,13.60
2022-12-03T04:10:26.436Z,14.80
2022-12-03T04:11:13.204Z,15.80
2022-12-03T04:12:13.584Z,14.89
2022-12-03T04:13:12.342Z,16
2022-12-03T04:14:27.298Z,15.10
2022-12-03T04:15:12.952Z,15.30
2022-12-03T04:16:12.738Z,15.60
2022-12-03T04:17:12.946Z,16.10
2022-12-03T04:18:13.153Z,15
2022-12-03T04:19:13.091Z,15.80
2022-12-03T04:20:13.366Z,16.5
2022-12-03T04:21:12.991Z,15.69
2022-12-03T04:22:13.073Z,14.39
2022-12-03T04:23:13.014Z,15.5
2022-12-03T04:24:13.240Z,14.80
2022-12-03T04:25:13.469Z,15.10
2022-12-03T04:26:12.415Z,15.39
2022-12-03T04:27:13.426Z,15.80
2022-12-03T04:28:13.191Z,15.39
2022-12-03T04:29:13.294Z,15.69
2022-12-03T04:30:13.900Z,16.5
2022-12-03T04:31:13.311Z,16.39
2022-12-03T04:32:12.425Z,16.29
2022-12-03T04:33:13.279Z,17
2022-12-03T04:34:12.951Z,14.69
2022-12-03T04:35:13.334Z,16.10
2022-12-03T04:36:12.796Z,16.70
2022-12-03T04:37:12.593Z,17.70
2022-12-03T04:38:12.466Z,16.60
2022-12-03T04:39:13.719Z,15
2022-12-03T04:40:12.656Z,16.39
2022-12-03T04:41:12.470Z,16.20
2022-12-03T04:42:12.696Z,15.80
2022-12-03T04:43:13.073Z,17.10
2022-12-03T04:44:13.084Z,15.5
2022-12-03T04:45:13.348Z,16.60
2022-12-03T04:46:13.517Z,15.39
2022-12-03T04:47:13.553Z,15.69
2022-12-03T04:48:12.788Z,15.89
2022-12-03T04:49:13.262Z,14.80
2022-12-03T04:50:13.957Z,16.60
2022-12-03T04:51:12.903Z,14.69
2022-12-03T04:52:13.006Z,16.10
2022-12-03T04:53:13.130Z,16.29
2022-12-03T04:55:13.074Z,16.39
2022-12-03T04:57:11.994Z,15.39
2022-12-03T04:58:12.612Z,16
2022-12-03T04:59:16.044Z,17.10
2022-12-03T05:00:13.549Z,16.60
2022-12-03T05:01:12.907Z,16.5
2022-12-03T05:02:13.321Z,15.80
2022-12-03T05:04:13.265Z,17.20
2022-12-03T05:05:13.220Z,16.89
2022-12-03T05:06:13.312Z,17.5
2022-12-03T05:07:13.197Z,15.5
2022-12-03T05:08:13.520Z,16.5
2022-12-03T05:09:12.920Z,17.20
2022-12-03T05:10:13.357Z,15.89
2022-12-03T05:11:12.761Z,16.60
2022-12-03T05:12:12.633Z,16.5
2022-12-03T05:14:12.102Z,16.10
2022-12-03T05:16:12.553Z,16.20
2022-12-03T05:17:12.256Z,16.70
2022-12-03T05:18:13.051Z,18.29
2022-12-03T05:19:12.658Z,15.10
2022-12-03T05:20:12.195Z,15.30
2022-12-03T05:21:12.846Z,17.20
2022-12-03T05:22:12.163Z,16.10
2022-12-03T05:23:13.224Z,16.70
2022-12-03T05:24:12.477Z,16.60
2022-12-03T05:25:12.264Z,15.10
2022-12-03T05:26:12.903Z,16.70
2022-12-03T05:27:12.588Z,15.89
2022-12-03T05:28:11.814Z,16.10
2022-12-03T05:29:12.902Z,16.39
2022-12-03T05:30:12.727Z,16.20
2022-12-03T05:31:12.312Z,16.60
2022-12-03T05:32:13.027Z,16.29
2022-12-03T05:33:12.704Z,16.20
2022-12-03T05:34:12.111Z,17.70
2022-12-03T05:35:12.922Z,14.60
2022-12-03T05:36:12.495Z,16.60
2022-12-03T05:37:13.101Z,16.70
2022-12-03T05:38:12.828Z,16.29
2022-12-03T05:39:12.712Z,16.39
2022-12-03T05:40:12.820Z,16.60
2022-12-03T05:41:12.376Z,15.19
2022-12-03T05:42:12.867Z,16.70
2022-12-03T05:43:12.526Z,15.69
2022-12-03T05:44:17.391Z,15.60
2022-12-03T05:45:13.065Z,14.39
2022-12-03T05:46:12.816Z,16
2022-12-03T05:47:13.262Z,17
2022-12-03T05:48:13.516Z,15.80
2022-12-03T05:49:12.813Z,14.10
2022-12-03T05:50:13.409Z,15.80
2022-12-03T05:51:13.725Z,15.10
2022-12-03T05:52:13.472Z,16.20
2022-12-03T05:53:13.034Z,16.29
2022-12-03T05:54:13.325Z,15.89
2022-12-03T05:55:13.525Z,14.80
2022-12-03T05:56:13.065Z,15.80
2022-12-03T05:57:12.422Z,15.69
2022-12-03T05:58:12.830Z,16.79
2022-12-03T05:59:12.902Z,16.29
2022-12-03T06:00:13.483Z,15.39
2022-12-03T06:01:12.673Z,16.89
2022-12-03T06:03:12.714Z,16.70
2022-12-03T06:04:13.372Z,15.19
2022-12-03T06:05:12.519Z,15.30
2022-12-03T06:06:12.307Z,15.10
2022-12-03T06:07:14.260Z,16
2022-12-03T06:08:12.420Z,15.39
2022-12-03T06:09:12.966Z,16.39
2022-12-03T06:10:13.298Z,15.60
2022-12-03T06:11:12.670Z,15.5
2022-12-03T06:12:13.014Z,17.10
2022-12-03T06:13:13.172Z,15.89
2022-12-03T06:14:13.399Z,15.39
2022-12-03T06:16:13.473Z,15.10
2022-12-03T06:17:17.671Z,15.80
2022-12-03T06:18:12.495Z,16.29
2022-12-03T06:19:13.066Z,15.80
2022-12-03T06:20:13.509Z,16.29
2022-12-03T06:21:17.983Z,16
2022-12-03T06:22:12.642Z,15.80
2022-12-03T06:24:12.754Z,15.10
2022-12-03T06:25:13.275Z,14.19
2022-12-03T06:26:12.114Z,15.60
2022-12-03T06:27:13.345Z,16.89
2022-12-03T06:28:13.443Z,18
2022-12-03T06:29:12.886Z,15.89
2022-12-03T06:31:20.338Z,14.80
2022-12-03T06:32:13.229Z,16.29
2022-12-03T06:33:21.322Z,14.69
2022-12-03T06:34:12.587Z,15.69
2022-12-03T06:35:26.517Z,15.10
2022-12-03T06:36:12.722Z,16.20
2022-12-03T06:37:13.210Z,15.89
2022-12-03T06:38:12.700Z,16.5
2022-12-03T06:39:27.021Z,16.39
2022-12-03T06:40:13.437Z,16.5
2022-12-03T06:41:12.871Z,14.60
2022-12-03T06:42:13.125Z,14.80
2022-12-03T06:43:13.493Z,15.80
2022-12-03T06:44:12.382Z,14.69
2022-12-03T06:45:13.929Z,16.89
2022-12-03T06:46:13.148Z,14.39
2022-12-03T06:47:26.783Z,14.89
2022-12-03T06:48:13.280Z,15.80
2022-12-03T06:49:13.057Z,16.10
2022-12-03T06:50:13.197Z,14
2022-12-03T06:51:12.963Z,14.19
2022-12-03T06:52:13.210Z,14.5
2022-12-03T06:53:32.737Z,14.69
2022-12-03T06:54:12.944Z,15.39
2022-12-03T06:55:13.586Z,15.19
2022-12-03T06:56:12.946Z,14.30
2022-12-03T06:57:13.321Z,16.10
2022-12-03T06:58:12.937Z,13.60
2022-12-03T06:59:13.149Z,14.5
2022-12-03T07:00:14.130Z,13.80
2022-12-03T07:02:13.279Z,15
2022-12-03T07:03:12.567Z,14.60
2022-12-03T07:04:12.933Z,13.89
2022-12-03T07:05:35.713Z,14.30
2022-12-03T07:06:13.682Z,13.5
2022-12-03T07:07:13.544Z,14.69
2022-12-03T07:08:13.391Z,14.19
2022-12-03T07:10:13.027Z,15.30
2022-12-03T07:12:13.244Z,15.39
2022-12-03T07:13:27.512Z,14.19
2022-12-03T07:14:13.381Z,14.60
2022-12-03T07:15:12.949Z,15.39
2022-12-03T07:16:12.858Z,14.10
2022-12-03T07:17:13.267Z,15.60
2022-12-03T07:18:12.972Z,14
2022-12-03T07:19:13.967Z,14.69
2022-12-03T07:20:13.408Z,14.10
2022-12-03T07:22:12.853Z,14.80
2022-12-03T07:23:12.950Z,14.89
2022-12-03T07:24:13.339Z,13.69
2022-12-03T07:25:15.736Z,12.89
2022-12-03T07:26:13.283Z,14.39
2022-12-03T07:28:13.530Z,15.80
2022-12-03T07:29:12.954Z,14.30
2022-12-03T07:30:13.753Z,14.69
2022-12-03T07:33:13.208Z,14.80
2022-12-03T07:34:12.922Z,14.5
2022-12-03T07:35:13.944Z,15.39
2022-12-03T07:36:13.561Z,14.80
2022-12-03T07:37:13.165Z,15.10
2022-12-03T07:38:12.847Z,15.89
2022-12-03T07:39:13.645Z,16.10
2022-12-03T07:40:13.049Z,15.60
2022-12-03T07:42:13.151Z,14.39
2022-12-03T07:43:12.800Z,14
2022-12-03T07:44:14.795Z,14.80
2022-12-03T07:45:13.637Z,14.30
2022-12-03T07:46:13.208Z,17.10
2022-12-03T07:47:12.875Z,14.5
2022-12-03T07:48:13.318Z,14.10
2022-12-03T07:50:13.508Z,15.10
2022-12-03T07:51:15.418Z,14.89
2022-12-03T07:52:13.130Z,14.80
2022-12-03T07:53:13.795Z,15.30
2022-12-03T07:54:13.255Z,15.89
2022-12-03T07:55:13.003Z,15.19
2022-12-03T07:56:13.457Z,14
2022-12-03T07:57:13.356Z,15.89
2022-12-03T07:58:12.534Z,13.5
2022-12-03T07:59:12.958Z,13.69
2022-12-03T08:00:13.909Z,12.80
2022-12-03T08:01:13.905Z,15.19
2022-12-03T08:02:19.517Z,14.30
2022-12-03T08:03:13.053Z,14.60
2022-12-03T08:04:13.766Z,14.39
2022-12-03T08:05:12.847Z,13.10
2022-12-03T08:06:13.431Z,13.80
2022-12-03T08:07:13.751Z,13.69
2022-12-03T08:08:13.228Z,14.19
2022-12-03T08:09:15.988Z,14
2022-12-03T08:10:14.217Z,14.5
2022-12-03T08:11:12.667Z,14.60
2022-12-03T08:12:13.520Z,13.10
2022-12-03T08:13:12.847Z,13
2022-12-03T08:14:13.675Z,13.10
2022-12-03T08:15:13.664Z,13.60
2022-12-03T08:16:13.333Z,13.69
2022-12-03T08:17:12.960Z,13.10
2022-12-03T08:18:13.514Z,14.30
2022-12-03T08:19:13.851Z,13.39
2022-12-03T08:20:13.257Z,12.80
2022-12-03T08:21:12.699Z,13.80
2022-12-03T08:22:13.390Z,12.5
2022-12-03T08:23:13.225Z,13.69
2022-12-03T08:24:13.644Z,14.69
2022-12-03T08:25:13.018Z,13.5
2022-12-03T08:26:13.063Z,14.60
2022-12-03T08:27:13.254Z,13.39
2022-12-03T08:28:13.203Z,14.10
2022-12-03T08:29:13.984Z,13.30
2022-12-03T08:30:13.937Z,14.69
2022-12-03T08:31:13.467Z,13.80
2022-12-03T08:32:13.507Z,13.30
2022-12-03T08:34:13.069Z,12.5
2022-12-03T08:35:14.087Z,12.80
2022-12-03T08:36:13.827Z,12.19
2022-12-03T08:37:13.824Z,13
2022-12-03T08:38:13.767Z,12.80
2022-12-03T08:39:13.795Z,13.60
2022-12-03T08:40:13.787Z,13.39
2022-12-03T08:41:13.177Z,12.80
2022-12-03T08:42:17.515Z,13.69
2022-12-03T08:43:12.721Z,13
2022-12-03T08:44:18.316Z,13.60
2022-12-03T08:45:12.877Z,12.69
2022-12-03T08:46:18.392Z,12.39
2022-12-03T08:47:13.918Z,12.89
2022-12-03T08:48:18.810Z,12.39
2022-12-03T08:49:13.084Z,12.30
2022-12-03T08:52:13.358Z,12.69
2022-12-03T08:53:12.283Z,12
2022-12-03T08:54:21.790Z,13.89
2022-12-03T08:55:13.811Z,13.19
2022-12-03T08:56:13.432Z,12.39
2022-12-03T08:57:13.116Z,12.60
2022-12-03T08:58:21.110Z,12
2022-12-03T08:59:13.770Z,12.89
2022-12-03T09:00:22.878Z,12
2022-12-03T09:01:13.422Z,12.80
2022-12-03T09:02:26.995Z,12.30
2022-12-03T09:03:13.430Z,11.69
2022-12-03T09:04:13.351Z,12.39
2022-12-03T09:05:13.403Z,13.19
2022-12-03T09:06:27.247Z,12.5
2022-12-03T09:07:13.352Z,13.10
2022-12-03T09:08:13.112Z,12.10
2022-12-03T09:09:12.856Z,12.30
2022-12-03T09:10:13.268Z,13.39
2022-12-03T09:11:12.478Z,12
2022-12-03T09:12:13.352Z,12.80
2022-12-03T09:13:13.056Z,13.19
2022-12-03T09:14:18.359Z,12.80
2022-12-03T09:15:12.871Z,12.30
2022-12-03T09:17:13.579Z,12.39
2022-12-03T09:18:13.667Z,11.60
2022-12-03T09:19:13.413Z,12.80
2022-12-03T09:20:13.433Z,12.39
2022-12-03T09:21:13.113Z,12.80
2022-12-03T09:22:13.060Z,12.60
2022-12-03T09:23:12.816Z,13.19
2022-12-03T09:24:13.707Z,11.60
2022-12-03T09:25:13.581Z,12.10
2022-12-03T09:26:13.627Z,13.39
2022-12-03T09:27:13.153Z,12.30
2022-12-03T09:28:12.816Z,12.80
2022-12-03T09:29:13.742Z,13.89
2022-12-03T09:30:35.888Z,13
2022-12-03T09:31:13.267Z,12.89
2022-12-03T09:32:18.127Z,12.60
2022-12-03T09:33:13.152Z,12.80
2022-12-03T09:34:13.866Z,13.39
2022-12-03T09:35:14.290Z,12.10
2022-12-03T09:36:13.197Z,12.5
2022-12-03T09:37:13.156Z,11.80
2022-12-03T09:39:13.119Z,14.80
2022-12-03T09:41:13.768Z,12.89
2022-12-03T09:43:13.379Z,12.19
2022-12-03T09:44:17.522Z,12.80
2022-12-03T09:45:14.121Z,12.30
2022-12-03T09:46:12.893Z,12.69
2022-12-03T09:47:12.819Z,13.60
2022-12-03T09:48:13.391Z,12
2022-12-03T09:49:16.072Z,13.19
2022-12-03T09:50:14.332Z,11.60
2022-12-03T09:51:12.633Z,13.10
2022-12-03T09:52:13.035Z,12
2022-12-03T09:53:12.690Z,12.80
2022-12-03T09:55:13.037Z,12.39
2022-12-03T09:56:13.065Z,14.60
2022-12-03T09:57:13.817Z,13.60
2022-12-03T09:58:13.375Z,13.19
2022-12-03T09:59:13.348Z,12.10
2022-12-03T10:00:14.377Z,14.39
2022-12-03T10:01:13.629Z,13.69
2022-12-03T10:02:13.679Z,13.39
2022-12-03T10:03:13.444Z,13.30
2022-12-03T10:04:13.041Z,11.89
2022-12-03T10:05:12.983Z,12.89
2022-12-03T10:06:13.643Z,13.89
2022-12-03T10:07:13.317Z,13.69
2022-12-03T10:08:13.264Z,12.89
2022-12-03T10:09:13.820Z,13.89
2022-12-03T10:11:12.931Z,13.30
2022-12-03T10:12:13.038Z,13.60
2022-12-03T10:13:13.721Z,12
2022-12-03T10:14:13.022Z,13.89
2022-12-03T10:15:14.342Z,11.80
2022-12-03T10:16:12.960Z,13
2022-12-03T10:17:14.048Z,13.19
2022-12-03T10:18:13.305Z,12.5
2022-12-03T10:19:13.193Z,12.89
2022-12-03T10:20:13.315Z,14.10
2022-12-03T10:21:13.756Z,12.30
2022-12-03T10:22:13.489Z,12.5
2022-12-03T10:23:13.178Z,11.60
2022-12-03T10:24:14.385Z,13.39
2022-12-03T10:25:13.355Z,12.89
2022-12-03T10:26:13.506Z,13.39
2022-12-03T10:27:13.727Z,12.80
2022-12-03T10:29:13.043Z,13.10
2022-12-03T10:30:13.179Z,13.89
2022-12-03T10:31:13.341Z,13.39
2022-12-03T10:32:13.514Z,13.10
2022-12-03T10:33:17.234Z,13
2022-12-03T10:34:13.352Z,15.69
2022-12-03T10:35:13.809Z,14.10
2022-12-03T10:36:13.859Z,12.89
2022-12-03T10:37:14.377Z,15
2022-12-03T10:38:13.746Z,13.89
2022-12-03T10:39:13.352Z,14.60
2022-12-03T10:40:13.409Z,14.10
2022-12-03T10:41:13.352Z,13.60
2022-12-03T10:42:12.773Z,13.39
2022-12-03T10:43:13.199Z,13.69
2022-12-03T10:45:13.971Z,13.60
2022-12-03T10:46:14.023Z,13.19
2022-12-03T10:47:13.470Z,13.80
2022-12-03T10:48:13.730Z,13.30
2022-12-03T10:49:13.622Z,13.5
2022-12-03T10:50:13.336Z,13.30
2022-12-03T10:51:13.165Z,12.80
2022-12-03T10:52:13.539Z,14.10
2022-12-03T10:54:13.793Z,15.10
2022-12-03T10:55:13.903Z,16.5
2022-12-03T10:56:13.799Z,15.19
2022-12-03T10:57:14.138Z,13.5
2022-12-03T10:58:12.647Z,14.60
2022-12-03T10:59:13.709Z,14.89
2022-12-03T11:00:14.836Z,13.80
2022-12-03T11:02:13.402Z,14.5
2022-12-03T11:03:13.301Z,15.69
2022-12-03T11:04:12.931Z,13.89
2022-12-03T11:05:14.109Z,15.5
2022-12-03T11:06:14.149Z,13.69
2022-12-03T11:07:14.017Z,15.10
2022-12-03T11:08:12.619Z,15.5
2022-12-03T11:09:13.610Z,17.5
2022-12-03T11:10:13.433Z,16.70
2022-12-03T11:11:13.894Z,15
2022-12-03T11:12:13.544Z,17.39
2022-12-03T11:13:18.079Z,19.10
2022-12-03T11:14:18.065Z,21.29
2022-12-03T11:15:14.205Z,19.70
2022-12-03T11:16:13.729Z,18.79
2022-12-03T11:17:13.513Z,17.10
2022-12-03T11:18:13.139Z,16.20
2022-12-03T11:19:12.550Z,16.10
2022-12-03T11:20:18.072Z,14.89
2022-12-03T11:21:21.081Z,17
2022-12-03T11:22:12.960Z,15.39
2022-12-03T11:23:21.943Z,16.70
2022-12-03T11:24:13.658Z,15.30
2022-12-03T11:25:21.407Z,16.39
2022-12-03T11:26:18.628Z,16.60
2022-12-03T11:27:27.760Z,14.89
2022-12-03T11:28:12.890Z,16.60
2022-12-03T11:29:27.498Z,15.80
2022-12-03T11:31:27.484Z,16.10
2022-12-03T11:32:13.554Z,16.20
2022-12-03T11:33:27.847Z,18
2022-12-03T11:34:13.078Z,15.89
2022-12-03T11:35:28.003Z,14.69
2022-12-03T11:36:13.261Z,17.39
2022-12-03T11:37:14.141Z,16.79
2022-12-03T11:38:12.923Z,17.60
2022-12-03T11:39:31.745Z,16.89
2022-12-03T11:40:13.971Z,17.10
2022-12-03T11:41:13.663Z,16.39
2022-12-03T11:42:14.180Z,17.39
2022-12-03T11:43:32.676Z,15.60
2022-12-03T11:44:13.028Z,16.20
2022-12-03T11:45:14.073Z,17.10
2022-12-03T11:46:12.598Z,16.20
2022-12-03T11:47:32.628Z,16.89
2022-12-03T11:48:13.038Z,17.39
2022-12-03T11:49:13.771Z,19
2022-12-03T11:50:13.674Z,18.60
2022-12-03T11:51:12.960Z,19
2022-12-03T11:52:13.317Z,18.60
2022-12-03T11:53:12.608Z,19
2022-12-03T11:54:13.150Z,17.70
2022-12-03T11:55:14.114Z,18.39
2022-12-03T11:56:13.534Z,18
2022-12-03T11:57:13.572Z,16.70
2022-12-03T11:58:13.439Z,18.70
2022-12-03T11:59:12.664Z,17.39
2022-12-03T12:00:14.353Z,19.79
2022-12-03T12:01:27.673Z,17.89
2022-12-03T12:02:12.879Z,17.60
2022-12-03T12:04:13.822Z,17.60
2022-12-03T12:05:14.049Z,18.10
2022-12-03T12:06:13.558Z,17.60
2022-12-03T12:08:12.837Z,17.70
2022-12-03T12:09:13.706Z,20.29
2022-12-03T12:10:13.794Z,17.70
2022-12-03T12:11:12.780Z,17.5
2022-12-03T12:12:12.947Z,18.29
2022-12-03T12:13:13.687Z,19.20
2022-12-03T12:14:13.146Z,19.39
2022-12-03T12:15:14.143Z,18.5
2022-12-03T12:16:14.051Z,18.60
2022-12-03T12:17:13.637Z,20.39
2022-12-03T12:18:13.592Z,19.79
2022-12-03T12:19:13.686Z,19.29
2022-12-03T12:20:13.788Z,19.20
2022-12-03T12:21:13.465Z,18.89
2022-12-03T12:22:13.576Z,20.10
2022-12-03T12:24:13.368Z,19.29
2022-12-03T12:25:13.558Z,20.20
2022-12-03T12:26:13.531Z,18.79
2022-12-03T12:27:13.178Z,19.10
2022-12-03T12:28:13.374Z,19.60
2022-12-03T12:29:13.113Z,19.89
2022-12-03T12:30:13.817Z,20.29
2022-12-03T12:31:13.090Z,19
2022-12-03T12:32:13.860Z,21.5
2022-12-03T12:33:14.143Z,20.60
2022-12-03T12:34:12.804Z,21.29
2022-12-03T12:35:13.679Z,20.89
2022-12-03T12:36:13.472Z,20.79
2022-12-03T12:37:12.723Z,19.89
2022-12-03T12:38:13.625Z,19.10
2022-12-03T12:39:13.371Z,21.10
2022-12-03T12:40:13.331Z,20.60
2022-12-03T12:41:13.262Z,21.29
2022-12-03T12:42:13.369Z,22.10
2022-12-03T12:43:16.499Z,22.39
2022-12-03T12:44:13.382Z,24.20
2022-12-03T12:45:13.661Z,21.29
2022-12-03T12:46:31.473Z,21.70
2022-12-03T12:47:12.725Z,22.70
2022-12-03T12:49:12.807Z,21.5
2022-12-03T12:50:13.776Z,21.20
2022-12-03T12:51:13.403Z,20.89
2022-12-03T12:52:13.100Z,22.29
2022-12-03T12:53:13.073Z,23.29
2022-12-03T12:54:12.775Z,23
2022-12-03T12:55:13.586Z,23.10
2022-12-03T12:56:13.440Z,21.5
2022-12-03T12:57:13.266Z,22.70
2022-12-03T12:58:12.734Z,22.39
2022-12-03T12:59:13.561Z,21.79
2022-12-03T13:00:14.355Z,21.70
2022-12-03T13:02:12.828Z,22.39
2022-12-03T13:03:12.792Z,21.89
2022-12-03T13:04:13.104Z,21.39
2022-12-03T13:05:13.394Z,21.20
2022-12-03T13:06:13.503Z,21.89
2022-12-03T13:07:13.534Z,21.39
2022-12-03T13:09:12.881Z,21.79
2022-12-03T13:10:13.459Z,23.20
2022-12-03T13:11:12.276Z,23.39
2022-12-03T13:12:13.932Z,23.5
2022-12-03T13:13:12.779Z,20.5
2022-12-03T13:14:13.579Z,21.89
2022-12-03T13:15:13.348Z,21.29
2022-12-03T13:16:13.343Z,20.70
2022-12-03T13:17:13.267Z,20.60
2022-12-03T13:18:13.267Z,22.60
2022-12-03T13:19:13.353Z,20.60
2022-12-03T13:20:13.375Z,21.10
2022-12-03T13:21:13.593Z,21.89
2022-12-03T13:22:13.380Z,21.60
2022-12-03T13:23:13.399Z,21.10
2022-12-03T13:24:13.553Z,24.10
2022-12-03T13:25:23.560Z,23.5
2022-12-03T13:26:30.482Z,23.29
2022-12-03T13:27:13.699Z,21.70
2022-12-03T13:28:13.542Z,21.39
2022-12-03T13:29:13.280Z,23
2022-12-03T13:30:17.701Z,24
2022-12-03T13:31:13.253Z,23.10
2022-12-03T13:32:18.074Z,22.10
2022-12-03T13:33:13.170Z,22.89
2022-12-03T13:34:18.146Z,21.29
2022-12-03T13:35:13.752Z,23.89
2022-12-03T13:36:18.588Z,21.60
2022-12-03T13:37:13.406Z,23.60
2022-12-03T13:38:18.095Z,24
2022-12-03T13:39:13.684Z,21.89
2022-12-03T13:40:18.815Z,25
2022-12-03T13:41:13.645Z,21.89
2022-12-03T13:42:18.475Z,22.5
2022-12-03T13:43:12.862Z,23.79
2022-12-03T13:44:18.532Z,24.60
2022-12-03T13:45:13.819Z,23.89
2022-12-03T13:47:13.699Z,22.70
2022-12-03T13:48:21.984Z,22.79
2022-12-03T13:49:13.600Z,24.39
2022-12-03T13:50:21.543Z,22.5
2022-12-03T13:51:12.725Z,22.20
2022-12-03T13:52:27.559Z,22.60
2022-12-03T13:53:12.591Z,23.89